Skagway, AK (99840)

8:15 AM AKDT on August 31, 2016 (GMT -0800)
Skagway | | Change Station

Elev 16 ft 59.46 °N, 135.32 °W | Updated 22 minutes ago

Overcast
Overcast
58 °F
Feels Like 58 °F
N
18
Wind Variable Wind from NNE
Gusts 25 mph

Today
High -- | Low -- °F
--% Chance of Precip.
Yesterday
High -- | Low -- °F
Precip. -- in
Pressure 30.03 in
Visibility 10.0 miles
Clouds Overcast 9000 ft
Dew Point 41 °F
Humidity 53%
Rainfall 0.00 in
Snow Depth Not available.
5:56 AM 8:04 PM
Waning Crescent, 1% visible
METAR PAGY 311553Z AUTO 03016G22KT 10SM OVC090 14/05 A3002 RMK AO2 PK WND 03026/1528 SLP167 T01440050 TSNO
Pressure 30.03 in
Visibility 10.0 miles
Clouds Overcast 9000 ft
Dew Point 41 °F
Humidity 53%
Rainfall 0.00 in
Snow Depth Not available.
5:56 AM 8:04 PM
Waning Crescent, 1% visible
METAR PAGY 311553Z AUTO 03016G22KT 10SM OVC090 14/05 A3002 RMK AO2 PK WND 03026/1528 SLP167 T01440050 TSNO

10-Day Weather Forecast

Almanac

Astronomy

Aug. 31, 2016 Rise Set
Actual Time
Civil Twilight
Nautical Twilight
Astronomical Twilight
Moon
Length of Visible Light
Length of Day
Tomorrow will be .
, % of the Moon is Illuminated

Today's Extremes

State Highs State Lows

Community

WunderPhotos

Upload Photos

1,936,105 photos uploaded!

WunderBlog® & News

Nearby

Air Quality

  Air Quality AQ Index Pollutant
Not available.

Snow Depth

Station Depth Elevation

Earthquake Activity

City Distance Mag. Time & Date
Minimum magnitude displayed is 2.5.

Coastal Water Temperatures

Place Temperature

Stations

Nearby Weather Stations

Station Location Temp. Windchill Dew Point Humidity Wind Precip. Elev Updated Type
                   

Watches & Warnings

There are currently no watches in effect.